createdAt,value
2017-07-30T00:00:13.159Z,79.80
2017-07-30T00:02:39.478Z,79.80
2017-07-30T00:05:05.772Z,79.80
2017-07-30T00:07:32.072Z,79.60
2017-07-30T00:09:58.349Z,79.60
2017-07-30T00:12:24.728Z,78.90
2017-07-30T00:14:51.008Z,79.20
2017-07-30T00:17:18.052Z,79.60
2017-07-30T00:19:45.171Z,79.50
2017-07-30T00:22:11.496Z,79.50
2017-07-30T00:24:37.792Z,79.80
2017-07-30T00:27:04.106Z,79.70
2017-07-30T00:29:30.378Z,79.70
2017-07-30T00:31:56.651Z,80.10
2017-07-30T00:34:23.001Z,79.90
2017-07-30T00:36:49.320Z,80.30
2017-07-30T00:39:15.649Z,79.30
2017-07-30T00:41:41.931Z,78.60
2017-07-30T00:44:08.197Z,77.80
2017-07-30T00:46:34.492Z,77.30
2017-07-30T00:49:00.792Z,77.20
2017-07-30T00:51:27.094Z,77.30
2017-07-30T00:53:54.134Z,77.30
2017-07-30T00:56:21.180Z,77.30
2017-07-30T00:58:49.314Z,77.10
2017-07-30T01:01:15.631Z,77.10
2017-07-30T01:03:41.994Z,76.90
2017-07-30T01:06:08.291Z,76.90
2017-07-30T01:08:34.574Z,76.90
2017-07-30T01:11:01.623Z,78.00
2017-07-30T01:13:28.644Z,78.30
2017-07-30T01:15:54.970Z,78.30
2017-07-30T01:18:21.272Z,78.40
2017-07-30T01:20:47.722Z,79.50
2017-07-30T01:23:14.020Z,79.10
2017-07-30T01:25:40.300Z,79.70
2017-07-30T01:28:06.600Z,80.10
2017-07-30T01:30:32.919Z,80.50
2017-07-30T01:32:59.297Z,80.90
2017-07-30T01:35:25.635Z,81.10
2017-07-30T01:37:52.651Z,82.00
2017-07-30T01:40:19.110Z,81.70
2017-07-30T01:42:45.473Z,81.40
2017-07-30T01:45:11.771Z,81.20
2017-07-30T01:47:38.840Z,81.00
2017-07-30T01:50:05.221Z,80.80
2017-07-30T01:52:31.553Z,80.70
2017-07-30T01:54:57.873Z,80.60
2017-07-30T01:57:24.179Z,80.60
2017-07-30T01:59:50.452Z,81.00
2017-07-30T02:02:16.764Z,81.30
2017-07-30T02:04:43.066Z,81.50
2017-07-30T02:07:09.468Z,82.00
2017-07-30T02:09:35.771Z,82.00
2017-07-30T02:12:02.056Z,81.80
2017-07-30T02:14:28.351Z,82.10
2017-07-30T02:16:55.372Z,83.60
2017-07-30T02:19:21.703Z,82.90
2017-07-30T02:21:47.997Z,83.10
2017-07-30T02:24:14.318Z,83.40
2017-07-30T02:26:40.631Z,83.60
2017-07-30T02:29:07.660Z,84.30
2017-07-30T02:31:34.844Z,84.60
2017-07-30T02:34:01.239Z,84.60
2017-07-30T02:36:27.505Z,84.90
2017-07-30T02:38:53.844Z,85.00
2017-07-30T02:41:20.107Z,85.80
2017-07-30T02:43:46.418Z,86.00
2017-07-30T02:46:12.727Z,86.00
2017-07-30T02:48:39.008Z,86.20
2017-07-30T02:51:05.340Z,87.20
2017-07-30T02:53:32.372Z,87.10
2017-07-30T02:55:58.676Z,87.10
2017-07-30T02:58:24.961Z,86.90
2017-07-30T03:00:51.958Z,87.60
2017-07-30T03:03:18.251Z,87.20
2017-07-30T03:05:45.310Z,87.40
2017-07-30T03:08:11.625Z,87.40
2017-07-30T03:10:37.946Z,87.60
2017-07-30T03:13:04.983Z,88.00
2017-07-30T03:15:31.276Z,87.90
2017-07-30T03:17:57.575Z,88.20
2017-07-30T03:20:23.888Z,88.20
2017-07-30T03:22:51.097Z,87.90
2017-07-30T03:25:17.425Z,87.80
2017-07-30T03:27:43.731Z,88.20
2017-07-30T03:30:10.172Z,88.30
2017-07-30T03:32:36.472Z,88.60
2017-07-30T03:35:02.779Z,88.60
2017-07-30T03:37:29.827Z,89.30
2017-07-30T03:39:56.844Z,89.20
2017-07-30T03:42:23.173Z,88.70
2017-07-30T03:44:49.483Z,89.00
2017-07-30T03:47:15.764Z,88.80
2017-07-30T03:49:42.823Z,88.80
2017-07-30T03:52:09.835Z,88.70
2017-07-30T03:54:36.136Z,88.60
2017-07-30T03:57:02.411Z,88.60
2017-07-30T03:59:29.495Z,87.90
2017-07-30T04:01:55.803Z,87.90
2017-07-30T04:04:22.939Z,87.70
2017-07-30T04:06:49.983Z,87.60
2017-07-30T04:09:16.261Z,87.60
2017-07-30T04:11:42.575Z,87.30
2017-07-30T04:14:08.940Z,87.10
2017-07-30T04:16:35.261Z,86.70
2017-07-30T04:19:01.636Z,86.50
2017-07-30T04:21:27.916Z,86.30
2017-07-30T04:23:54.199Z,86.20
2017-07-30T04:26:21.239Z,86.10
2017-07-30T04:28:48.298Z,86.00
2017-07-30T04:31:15.336Z,86.50
2017-07-30T04:33:42.384Z,85.60
2017-07-30T04:36:08.663Z,85.60
2017-07-30T04:38:34.951Z,85.00
2017-07-30T04:41:01.998Z,83.30
2017-07-30T04:43:29.019Z,82.70
2017-07-30T04:45:55.292Z,82.60
2017-07-30T04:48:21.595Z,82.30
2017-07-30T04:50:47.885Z,82.20
2017-07-30T04:53:14.203Z,82.00
2017-07-30T04:55:40.494Z,81.80
2017-07-30T04:58:07.583Z,76.60
2017-07-30T05:00:33.940Z,76.50
2017-07-30T05:03:00.220Z,69.70
2017-07-30T05:05:26.511Z,63.10
2017-07-30T05:07:52.792Z,58.10
2017-07-30T05:10:19.095Z,52.50
2017-07-30T05:12:46.104Z,45.80
2017-07-30T05:15:12.357Z,45.70
2017-07-30T05:17:38.646Z,43.00
2017-07-30T05:20:04.967Z,41.30
2017-07-30T05:22:31.288Z,38.90
2017-07-30T05:24:57.620Z,37.60
2017-07-30T05:27:23.940Z,36.40
2017-07-30T05:29:50.268Z,35.00
2017-07-30T05:32:16.551Z,34.20
2017-07-30T05:34:42.849Z,33.40
2017-07-30T05:37:09.264Z,31.30
2017-07-30T05:39:35.552Z,31.20
2017-07-30T05:42:01.831Z,29.70
2017-07-30T05:44:28.133Z,28.30
2017-07-30T05:46:55.355Z,26.90
2017-07-30T05:49:21.743Z,26.80
2017-07-30T05:51:48.028Z,26.30
2017-07-30T05:54:15.123Z,26.10
2017-07-30T05:56:41.436Z,26.00
2017-07-30T05:59:07.860Z,25.80
2017-07-30T06:01:34.167Z,24.80
2017-07-30T06:04:01.224Z,25.30
2017-07-30T06:06:28.285Z,25.70
2017-07-30T06:08:54.586Z,25.70
2017-07-30T06:11:21.643Z,26.60
2017-07-30T06:13:48.687Z,26.90
2017-07-30T06:16:15.893Z,28.00
2017-07-30T06:18:42.214Z,28.00
2017-07-30T06:21:08.507Z,28.90
2017-07-30T06:23:35.608Z,31.10
2017-07-30T06:26:01.917Z,31.00
2017-07-30T06:28:28.200Z,31.70
2017-07-30T06:30:54.541Z,32.30
2017-07-30T06:33:21.891Z,34.10
2017-07-30T06:35:48.875Z,34.10
2017-07-30T06:38:15.200Z,34.00
2017-07-30T06:40:41.504Z,33.50
2017-07-30T06:43:08.551Z,31.50
2017-07-30T06:45:35.584Z,30.60
2017-07-30T06:48:02.655Z,29.40
2017-07-30T06:50:28.968Z,29.60
2017-07-30T06:52:56.032Z,28.40
2017-07-30T06:55:23.096Z,27.80
2017-07-30T06:57:49.562Z,27.70
2017-07-30T07:00:15.891Z,26.20
2017-07-30T07:02:42.224Z,25.20
2017-07-30T07:05:08.508Z,24.90
2017-07-30T07:07:34.824Z,23.50
2017-07-30T07:10:01.859Z,22.00
2017-07-30T07:12:28.937Z,20.70
2017-07-30T07:14:55.259Z,20.60
2017-07-30T07:17:21.611Z,19.60
2017-07-30T07:19:47.937Z,19.30
2017-07-30T07:22:14.287Z,18.40
2017-07-30T07:24:40.605Z,18.20
2017-07-30T07:27:06.984Z,17.90
2017-07-30T07:29:33.357Z,18.00
2017-07-30T07:31:59.645Z,17.40
2017-07-30T07:34:26.052Z,17.70
2017-07-30T07:36:52.525Z,16.90
2017-07-30T07:39:18.823Z,17.10
2017-07-30T07:41:45.100Z,16.40
2017-07-30T07:44:11.395Z,16.00
2017-07-30T07:46:37.673Z,16.20
2017-07-30T07:49:03.981Z,16.20
2017-07-30T07:51:30.299Z,16.40
2017-07-30T07:53:57.383Z,15.70
2017-07-30T07:56:23.688Z,15.70
2017-07-30T07:58:49.998Z,16.30
2017-07-30T08:01:17.071Z,16.20
2017-07-30T08:03:43.536Z,16.20
2017-07-30T08:06:09.848Z,16.60
2017-07-30T08:08:36.148Z,16.30
2017-07-30T08:11:02.583Z,16.00
2017-07-30T08:13:29.664Z,18.20
2017-07-30T08:15:56.009Z,18.10
2017-07-30T08:18:22.315Z,18.60
2017-07-30T08:20:48.720Z,17.90
2017-07-30T08:23:15.037Z,18.50
2017-07-30T08:25:42.127Z,20.50
2017-07-30T08:28:08.422Z,20.60
2017-07-30T08:30:34.768Z,20.50
2017-07-30T08:33:01.098Z,20.00
2017-07-30T08:35:27.380Z,19.70
2017-07-30T08:37:53.667Z,19.10
2017-07-30T08:40:19.964Z,18.70
2017-07-30T08:42:47.036Z,18.20
2017-07-30T08:45:13.335Z,18.60
2017-07-30T08:47:39.669Z,18.80
2017-07-30T08:50:06.180Z,18.50
2017-07-30T08:52:32.527Z,18.20
2017-07-30T08:54:58.825Z,17.40
2017-07-30T08:57:25.176Z,16.60
2017-07-30T08:59:51.468Z,17.00
2017-07-30T09:02:17.796Z,17.10
2017-07-30T09:04:44.129Z,16.50
2017-07-30T09:07:10.415Z,15.50
2017-07-30T09:09:36.756Z,14.90
2017-07-30T09:12:03.825Z,14.60
2017-07-30T09:14:30.088Z,14.60
2017-07-30T09:16:56.364Z,15.20
2017-07-30T09:19:23.455Z,16.10
2017-07-30T09:21:49.781Z,16.10
2017-07-30T09:24:16.134Z,16.40
2017-07-30T09:26:42.445Z,16.40
2017-07-30T09:29:08.837Z,16.10
2017-07-30T09:31:36.031Z,16.70
2017-07-30T09:34:02.307Z,16.70
2017-07-30T09:36:29.393Z,17.10
2017-07-30T09:38:55.702Z,17.00
2017-07-30T09:41:22.040Z,17.50
2017-07-30T09:43:48.362Z,17.60
2017-07-30T09:46:14.648Z,17.30
2017-07-30T09:48:40.973Z,17.80
2017-07-30T09:51:07.285Z,17.80
2017-07-30T09:53:33.665Z,18.90
2017-07-30T09:56:00.717Z,20.00
2017-07-30T09:58:27.764Z,20.10
2017-07-30T10:00:54.824Z,20.70
2017-07-30T10:03:21.180Z,20.70
2017-07-30T10:05:47.918Z,21.00
2017-07-30T10:08:14.225Z,23.20
2017-07-30T10:10:40.549Z,24.60
2017-07-30T10:13:07.640Z,29.00
2017-07-30T10:15:33.927Z,29.00
2017-07-30T10:18:00.965Z,32.00
2017-07-30T10:20:28.065Z,32.40
2017-07-30T10:22:54.394Z,32.30
2017-07-30T10:25:20.709Z,32.50
2017-07-30T10:27:47.012Z,32.70
2017-07-30T10:30:14.061Z,31.60
2017-07-30T10:32:41.089Z,31.90
2017-07-30T10:35:08.212Z,31.90
2017-07-30T10:37:34.522Z,31.80
2017-07-30T10:40:00.846Z,32.20
2017-07-30T10:42:27.352Z,32.60
2017-07-30T10:44:53.912Z,31.90
2017-07-30T10:47:20.188Z,32.90
2017-07-30T10:49:46.556Z,34.30
2017-07-30T10:52:12.860Z,34.70
2017-07-30T10:54:39.934Z,33.50
2017-07-30T10:57:06.239Z,33.50
2017-07-30T10:59:33.322Z,32.80
2017-07-30T11:01:59.607Z,32.80
2017-07-30T11:04:25.921Z,32.30
2017-07-30T11:06:52.199Z,33.00
2017-07-30T11:09:18.508Z,33.60
2017-07-30T11:11:45.554Z,35.30
2017-07-30T11:14:12.620Z,35.10
2017-07-30T11:16:38.956Z,35.10
2017-07-30T11:19:06.025Z,37.80
2017-07-30T11:21:32.384Z,37.80
2017-07-30T11:23:58.696Z,38.80
2017-07-30T11:26:25.008Z,38.40
2017-07-30T11:28:51.408Z,38.20
2017-07-30T11:31:18.466Z,37.70
2017-07-30T11:33:44.785Z,37.70
2017-07-30T11:36:11.861Z,38.60
2017-07-30T11:38:38.175Z,38.50
2017-07-30T11:41:04.512Z,38.20
2017-07-30T11:43:30.823Z,38.10
2017-07-30T11:45:57.887Z,38.70
2017-07-30T11:48:24.203Z,38.80
2017-07-30T11:50:51.292Z,40.60
2017-07-30T11:53:17.640Z,40.50
2017-07-30T11:55:43.924Z,40.70
2017-07-30T11:58:10.355Z,40.70
2017-07-30T12:00:36.649Z,41.30
2017-07-30T12:03:02.940Z,40.60
2017-07-30T12:05:29.247Z,40.30
2017-07-30T12:07:55.549Z,40.00
2017-07-30T12:10:21.871Z,40.80
2017-07-30T12:12:48.219Z,41.60
2017-07-30T12:15:14.532Z,41.50
2017-07-30T12:17:40.845Z,42.30
2017-07-30T12:20:07.168Z,43.90
2017-07-30T12:22:33.515Z,44.50
2017-07-30T12:24:59.869Z,43.70
2017-07-30T12:27:26.907Z,42.90
2017-07-30T12:29:53.965Z,42.10
2017-07-30T12:32:21.058Z,40.20
2017-07-30T12:34:47.400Z,40.10
2017-07-30T12:37:13.721Z,40.30
2017-07-30T12:39:40.168Z,39.90
2017-07-30T12:42:07.247Z,39.30
2017-07-30T12:44:34.319Z,38.80
2017-07-30T12:47:00.606Z,38.70
2017-07-30T12:49:26.921Z,38.90
2017-07-30T12:51:53.411Z,38.70
2017-07-30T12:54:19.776Z,38.40
2017-07-30T12:56:46.101Z,38.80
2017-07-30T12:59:12.435Z,39.50
2017-07-30T13:01:38.748Z,37.40
2017-07-30T13:04:05.146Z,38.10
2017-07-30T13:06:31.471Z,37.90
2017-07-30T13:08:57.813Z,38.60
2017-07-30T13:11:24.833Z,38.10
2017-07-30T13:13:51.188Z,38.10
2017-07-30T13:16:18.290Z,38.50
2017-07-30T13:18:44.642Z,37.80
2017-07-30T13:21:10.953Z,38.40
2017-07-30T13:23:37.308Z,38.40
2017-07-30T13:26:03.640Z,38.90
2017-07-30T13:28:29.908Z,38.10
2017-07-30T13:30:56.248Z,38.20
2017-07-30T13:33:22.556Z,37.80
2017-07-30T13:35:48.868Z,38.20
2017-07-30T13:38:15.356Z,39.10
2017-07-30T13:40:41.654Z,37.90
2017-07-30T13:43:08.059Z,37.60
2017-07-30T13:45:35.133Z,38.00
2017-07-30T13:48:01.726Z,38.00
2017-07-30T13:50:28.059Z,37.90
2017-07-30T13:52:54.335Z,38.00
2017-07-30T13:55:20.666Z,38.30
2017-07-30T13:57:47.067Z,38.50
2017-07-30T14:00:14.125Z,37.50
2017-07-30T14:02:41.176Z,37.20
2017-07-30T14:05:08.212Z,37.80
2017-07-30T14:07:34.708Z,37.70
2017-07-30T14:10:01.119Z,38.90
2017-07-30T14:12:27.588Z,38.20
2017-07-30T14:14:53.921Z,39.50
2017-07-30T14:17:20.191Z,39.00
2017-07-30T14:19:46.522Z,39.40
2017-07-30T14:22:12.869Z,39.50
2017-07-30T14:24:39.267Z,39.00
2017-07-30T14:27:06.332Z,39.20
2017-07-30T14:29:32.637Z,39.20
2017-07-30T14:31:58.959Z,39.80
2017-07-30T14:34:25.258Z,40.50
2017-07-30T14:36:51.697Z,40.80
2017-07-30T14:39:18.047Z,41.50
2017-07-30T14:41:44.341Z,41.80
2017-07-30T14:44:10.696Z,42.40
2017-07-30T14:46:37.015Z,42.40
2017-07-30T14:49:03.369Z,43.20
2017-07-30T14:51:29.692Z,44.00
2017-07-30T14:53:56.238Z,44.40
2017-07-30T14:56:22.493Z,44.20
2017-07-30T14:58:48.822Z,44.50
2017-07-30T15:01:15.128Z,43.80
2017-07-30T15:03:41.462Z,43.30
2017-07-30T15:06:08.539Z,43.20
2017-07-30T15:08:34.839Z,43.20
2017-07-30T15:11:01.894Z,42.50
2017-07-30T15:13:29.036Z,41.90
2017-07-30T15:15:55.313Z,41.80
2017-07-30T15:18:21.684Z,42.30
2017-07-30T15:20:47.996Z,41.40
2017-07-30T15:23:14.314Z,41.00
2017-07-30T15:25:40.643Z,40.60
2017-07-30T15:28:06.954Z,40.10
2017-07-30T15:30:33.290Z,39.60
2017-07-30T15:32:59.588Z,40.00
2017-07-30T15:35:26.657Z,39.40
2017-07-30T15:37:52.967Z,39.40
2017-07-30T15:40:20.050Z,39.80
2017-07-30T15:42:46.385Z,39.70
2017-07-30T15:45:12.667Z,39.40
2017-07-30T15:47:39.726Z,40.40
2017-07-30T15:50:06.054Z,40.30
2017-07-30T15:52:32.406Z,40.80
2017-07-30T15:54:58.759Z,41.60
2017-07-30T15:57:25.229Z,41.60
2017-07-30T15:59:51.581Z,42.40
2017-07-30T16:02:17.903Z,42.20
2017-07-30T16:04:44.231Z,41.80
2017-07-30T16:07:10.537Z,42.40
2017-07-30T16:09:36.880Z,43.10
2017-07-30T16:12:03.244Z,44.00
2017-07-30T16:14:29.753Z,44.30
2017-07-30T16:16:56.096Z,44.80
2017-07-30T16:19:22.597Z,45.00
2017-07-30T16:21:49.035Z,45.30
2017-07-30T16:24:16.143Z,46.80
2017-07-30T16:26:42.502Z,46.20
2017-07-30T16:29:08.809Z,46.30
2017-07-30T16:31:35.183Z,47.10
2017-07-30T16:34:02.268Z,46.60
2017-07-30T16:36:28.633Z,46.80
2017-07-30T16:38:54.988Z,46.90
2017-07-30T16:41:21.380Z,46.80
2017-07-30T16:43:47.741Z,47.10
2017-07-30T16:46:14.190Z,47.40
2017-07-30T16:48:41.354Z,47.80
2017-07-30T16:51:08.468Z,47.70
2017-07-30T16:53:34.778Z,48.00
2017-07-30T16:56:01.290Z,46.90
2017-07-30T16:58:27.588Z,46.90
2017-07-30T17:00:54.875Z,46.80
2017-07-30T17:03:21.242Z,46.70
2017-07-30T17:05:47.589Z,46.30
2017-07-30T17:08:14.652Z,47.10
2017-07-30T17:10:41.060Z,47.00
2017-07-30T17:13:08.111Z,47.30
2017-07-30T17:15:34.427Z,47.30
2017-07-30T17:18:00.753Z,47.40
2017-07-30T17:20:27.049Z,46.60
2017-07-30T17:22:53.398Z,46.40
2017-07-30T17:25:19.755Z,46.50
2017-07-30T17:27:46.044Z,46.40
2017-07-30T17:30:12.399Z,46.70
2017-07-30T17:32:38.681Z,47.40
2017-07-30T17:35:04.971Z,47.50
2017-07-30T17:37:31.324Z,47.90
2017-07-30T17:39:58.373Z,48.00
2017-07-30T17:42:24.755Z,48.10
2017-07-30T17:44:51.117Z,47.50
2017-07-30T17:47:17.452Z,47.70
2017-07-30T17:49:43.786Z,48.10
2017-07-30T17:52:10.092Z,48.50
2017-07-30T17:54:36.409Z,48.90
2017-07-30T17:57:02.836Z,49.40
2017-07-30T17:59:29.148Z,50.00
2017-07-30T18:01:55.438Z,50.50
2017-07-30T18:04:21.743Z,50.90
2017-07-30T18:06:48.088Z,51.60
2017-07-30T18:09:14.383Z,53.50
2017-07-30T18:11:40.746Z,54.90
2017-07-30T18:14:07.239Z,54.50
2017-07-30T18:16:33.574Z,54.70
2017-07-30T18:18:59.961Z,55.10
2017-07-30T18:21:27.008Z,55.90
2017-07-30T18:23:54.059Z,56.40
2017-07-30T18:26:21.312Z,57.10
2017-07-30T18:28:48.353Z,57.40
2017-07-30T18:31:15.474Z,57.90
2017-07-30T18:33:41.852Z,57.90
2017-07-30T18:36:08.188Z,59.00
2017-07-30T18:38:34.504Z,59.30
2017-07-30T18:41:00.829Z,60.00
2017-07-30T18:43:27.863Z,61.20
2017-07-30T18:45:54.195Z,61.20
2017-07-30T18:48:21.344Z,62.10
2017-07-30T18:50:48.435Z,63.10
2017-07-30T18:53:14.877Z,62.90
2017-07-30T18:55:41.406Z,63.40
2017-07-30T18:58:07.807Z,63.50
2017-07-30T19:00:34.105Z,64.00
2017-07-30T19:03:00.465Z,64.50
2017-07-30T19:05:27.549Z,65.20
2017-07-30T19:07:53.856Z,65.10
2017-07-30T19:10:20.225Z,65.30
2017-07-30T19:12:46.568Z,65.50
2017-07-30T19:15:12.920Z,65.30
2017-07-30T19:17:40.034Z,66.70
2017-07-30T19:20:06.327Z,65.70
2017-07-30T19:22:32.684Z,66.60
2017-07-30T19:24:59.019Z,66.50
2017-07-30T19:27:25.530Z,66.90
2017-07-30T19:29:52.024Z,67.00
2017-07-30T19:32:19.303Z,66.80
2017-07-30T19:34:48.009Z,67.90
2017-07-30T19:37:17.487Z,67.70
2017-07-30T19:39:43.866Z,67.70
2017-07-30T19:42:10.928Z,67.40
2017-07-30T19:44:38.097Z,67.80
2017-07-30T19:47:04.465Z,68.00
2017-07-30T19:49:30.881Z,68.30
2017-07-30T19:52:01.919Z,69.60
2017-07-30T19:54:29.205Z,69.60
2017-07-30T19:56:59.314Z,69.90
2017-07-30T19:59:26.367Z,70.40
2017-07-30T20:01:52.735Z,70.80
2017-07-30T20:04:19.255Z,71.40
2017-07-30T20:06:46.010Z,71.30
2017-07-30T20:09:12.656Z,71.30
2017-07-30T20:11:39.137Z,71.40
2017-07-30T20:14:06.128Z,71.40
2017-07-30T20:16:33.700Z,71.70
2017-07-30T20:19:00.472Z,71.70
2017-07-30T20:21:27.064Z,72.10
2017-07-30T20:23:54.402Z,72.10
2017-07-30T20:26:21.978Z,72.20
2017-07-30T20:28:49.792Z,72.40
2017-07-30T20:31:17.223Z,72.60
2017-07-30T20:33:44.835Z,72.00
2017-07-30T20:36:11.215Z,71.90
2017-07-30T20:38:40.023Z,71.90
2017-07-30T20:41:08.437Z,72.00
2017-07-30T20:43:34.853Z,72.00
2017-07-30T20:46:01.156Z,72.00
2017-07-30T20:48:27.501Z,72.20
2017-07-30T20:50:53.850Z,72.00
2017-07-30T20:53:20.125Z,72.20
2017-07-30T20:55:47.257Z,71.80
2017-07-30T20:58:13.621Z,71.70
2017-07-30T21:00:39.984Z,71.00
2017-07-30T21:03:06.280Z,71.00
2017-07-30T21:05:33.446Z,71.00
2017-07-30T21:07:59.812Z,71.00
2017-07-30T21:10:26.324Z,71.30
2017-07-30T21:12:52.623Z,71.40
2017-07-30T21:15:19.738Z,72.00
2017-07-30T21:17:46.120Z,72.00
2017-07-30T21:20:12.465Z,72.10
2017-07-30T21:22:38.806Z,72.50
2017-07-30T21:25:05.258Z,72.70
2017-07-30T21:27:31.594Z,73.00
2017-07-30T21:29:57.966Z,73.00
2017-07-30T21:32:24.378Z,73.30
2017-07-30T21:34:51.413Z,73.50
2017-07-30T21:37:18.546Z,73.80
2017-07-30T21:39:45.029Z,73.60
2017-07-30T21:42:11.371Z,73.80
2017-07-30T21:44:37.748Z,73.90
2017-07-30T21:47:04.070Z,74.10
2017-07-30T21:49:30.447Z,74.50
2017-07-30T21:51:57.628Z,74.70
2017-07-30T21:54:24.077Z,74.60
2017-07-30T21:56:50.491Z,75.00
2017-07-30T21:59:16.920Z,75.30
2017-07-30T22:01:43.493Z,75.60
2017-07-30T22:04:09.928Z,75.80
2017-07-30T22:06:36.283Z,76.00
2017-07-30T22:09:03.311Z,76.10
2017-07-30T22:11:29.703Z,76.00
2017-07-30T22:13:56.003Z,76.10
2017-07-30T22:16:22.292Z,76.00
2017-07-30T22:18:48.591Z,75.80
2017-07-30T22:21:14.992Z,75.40
2017-07-30T22:23:42.024Z,74.90
2017-07-30T22:26:09.049Z,74.50
2017-07-30T22:28:35.363Z,74.40
2017-07-30T22:31:01.682Z,74.20
2017-07-30T22:33:28.006Z,74.10
2017-07-30T22:35:54.520Z,74.10
2017-07-30T22:38:20.947Z,73.90
2017-07-30T22:40:47.225Z,73.60
2017-07-30T22:43:13.531Z,73.40
2017-07-30T22:45:39.949Z,73.30
2017-07-30T22:48:06.264Z,73.40
2017-07-30T22:50:33.436Z,72.60
2017-07-30T22:52:59.859Z,72.60
2017-07-30T22:55:26.182Z,72.50
2017-07-30T22:57:53.227Z,72.90
2017-07-30T23:00:19.567Z,72.80
2017-07-30T23:02:45.879Z,72.90
2017-07-30T23:05:12.919Z,72.90
2017-07-30T23:07:39.990Z,73.00
2017-07-30T23:10:06.293Z,73.00
2017-07-30T23:12:33.300Z,72.90
2017-07-30T23:14:59.606Z,72.90
2017-07-30T23:17:25.923Z,72.80
2017-07-30T23:19:52.220Z,72.90
2017-07-30T23:22:18.537Z,72.90
2017-07-30T23:24:44.851Z,72.90
2017-07-30T23:27:11.161Z,73.00
2017-07-30T23:29:37.435Z,73.10
2017-07-30T23:32:04.463Z,73.20
2017-07-30T23:34:30.773Z,73.20
2017-07-30T23:36:57.063Z,73.40
2017-07-30T23:39:24.091Z,73.60
2017-07-30T23:41:50.412Z,73.50
2017-07-30T23:44:16.688Z,73.60
2017-07-30T23:46:43.017Z,73.80
2017-07-30T23:49:09.300Z,73.80
2017-07-30T23:51:35.591Z,73.70
2017-07-30T23:54:01.875Z,73.70
2017-07-30T23:56:28.912Z,74.90
2017-07-30T23:58:55.975Z,74.60
